createdAt,value
2019-03-22T00:05:07.901Z,101054.55
2019-03-22T00:07:37.772Z,101056.08
2019-03-22T00:15:33.748Z,101051.77
2019-03-22T00:18:03.591Z,101056.19
2019-03-22T00:20:33.458Z,101049.61
2019-03-22T00:23:03.328Z,101047.70
2019-03-22T00:25:32.485Z,101050.72
2019-03-22T00:28:02.341Z,101054.60
2019-03-22T00:30:32.212Z,101057.58
2019-03-22T00:33:02.089Z,101052.50
2019-03-22T00:35:31.999Z,101051.72
2019-03-22T00:38:01.836Z,101065.45
2019-03-22T00:40:31.715Z,101061.94
2019-03-22T00:43:01.613Z,101066.09
2019-03-22T00:45:31.477Z,101069.11
2019-03-22T00:48:01.346Z,101061.62
2019-03-22T00:50:31.198Z,101069.02
2019-03-22T00:53:00.237Z,101061.61
2019-03-22T00:55:30.120Z,101064.59
2019-03-22T00:57:59.967Z,101069.38
2019-03-22T01:00:29.922Z,101058.44
2019-03-22T01:02:59.792Z,101062.68
2019-03-22T01:05:29.643Z,101062.20
2019-03-22T01:07:59.513Z,101055.00
2019-03-22T01:10:29.389Z,101059.91
2019-03-22T01:12:59.239Z,101047.88
2019-03-22T01:15:29.288Z,101055.98
2019-03-22T01:17:59.136Z,101052.75
2019-03-22T01:20:29.015Z,101052.47
2019-03-22T01:22:58.884Z,101051.98
2019-03-22T01:25:28.752Z,101051.53
2019-03-22T01:27:58.616Z,101048.48
2019-03-22T01:30:28.473Z,101044.59
2019-03-22T01:32:58.337Z,101041.97
2019-03-22T01:35:28.208Z,101047.48
2019-03-22T01:37:58.075Z,101049.57
2019-03-22T01:40:38.253Z,101039.17
2019-03-22T01:43:08.117Z,101046.23
2019-03-22T01:45:38.001Z,101041.79
2019-03-22T01:48:07.870Z,101035.62
2019-03-22T01:50:37.747Z,101038.10
2019-03-22T01:53:07.800Z,101028.09
2019-03-22T01:55:37.650Z,101034.95
2019-03-22T01:58:07.512Z,101031.98
2019-03-22T02:00:37.471Z,101035.95
2019-03-22T02:03:07.389Z,101036.08
2019-03-22T02:05:37.251Z,101029.34
2019-03-22T02:08:18.860Z,101031.09
2019-03-22T02:10:48.033Z,101024.82
2019-03-22T02:13:17.907Z,101035.71
2019-03-22T02:15:47.787Z,101029.71
2019-03-22T02:18:16.989Z,101028.20
2019-03-22T02:20:46.879Z,101037.75
2019-03-22T02:23:16.783Z,101036.83
2019-03-22T02:25:46.644Z,101037.27
2019-03-22T02:28:16.525Z,101032.73
2019-03-22T02:30:46.503Z,101042.70
2019-03-22T02:33:16.419Z,101041.59
2019-03-22T02:35:46.317Z,101034.44
2019-03-22T02:38:16.179Z,101039.71
2019-03-22T02:40:46.048Z,101037.23
2019-03-22T02:43:15.902Z,101036.43
2019-03-22T02:45:45.764Z,101035.00
2019-03-22T02:48:15.620Z,101035.19
2019-03-22T02:50:45.487Z,101038.03
2019-03-22T02:53:15.356Z,101044.07
2019-03-22T02:55:44.564Z,101049.17
2019-03-22T02:58:21.067Z,101037.08
2019-03-22T03:01:04.281Z,101033.88
2019-03-22T03:03:34.150Z,101032.99
2019-03-22T03:06:04.178Z,101032.80
2019-03-22T03:08:34.045Z,101037.58
2019-03-22T03:11:03.339Z,101043.59
2019-03-22T03:13:33.196Z,101035.42
2019-03-22T03:18:47.067Z,101033.39
2019-03-22T03:21:16.952Z,101035.12
2019-03-22T03:23:46.829Z,101031.22
2019-03-22T03:26:16.667Z,101025.25
2019-03-22T03:28:46.525Z,101035.76
2019-03-22T03:31:16.379Z,101036.71
2019-03-22T03:33:46.253Z,101036.48
2019-03-22T03:36:16.128Z,101031.95
2019-03-22T03:38:45.983Z,101035.33
2019-03-22T03:41:15.833Z,101035.87
2019-03-22T03:43:45.738Z,101036.31
2019-03-22T03:46:15.599Z,101040.14
2019-03-22T03:48:44.771Z,101037.33
2019-03-22T03:51:14.633Z,101043.78
2019-03-22T03:53:44.543Z,101036.20
2019-03-22T03:56:14.413Z,101032.71
2019-03-22T03:58:52.267Z,101032.61
2019-03-22T04:01:34.032Z,101030.43
2019-03-22T04:04:14.731Z,101036.98
2019-03-22T04:06:43.886Z,101031.78
2019-03-22T04:09:13.751Z,101033.30
2019-03-22T04:11:43.789Z,101035.97
2019-03-22T04:14:13.612Z,101038.41
2019-03-22T04:16:43.482Z,101037.53
2019-03-22T04:19:13.335Z,101037.79
2019-03-22T04:21:42.426Z,101044.19
2019-03-22T04:24:12.267Z,101037.33
2019-03-22T04:26:42.135Z,101046.29
2019-03-22T04:29:12.001Z,101044.81
2019-03-22T04:31:41.893Z,101041.95
2019-03-22T04:34:11.728Z,101046.05
2019-03-22T04:36:41.614Z,101038.51
2019-03-22T04:39:11.460Z,101038.11
2019-03-22T04:41:41.330Z,101044.89
2019-03-22T04:44:11.198Z,101050.67
2019-03-22T05:05:02.440Z,101059.12
2019-03-22T05:07:44.037Z,101062.37
2019-03-22T05:16:39.834Z,101063.94
2019-03-22T05:34:09.277Z,101073.11
2019-03-22T05:36:39.120Z,101078.31
2019-03-22T05:39:09.582Z,101071.36
2019-03-22T05:41:38.983Z,101073.65
2019-03-22T05:44:08.862Z,101076.30
2019-03-22T05:46:38.772Z,101074.47
2019-03-22T05:49:08.636Z,101067.86
2019-03-22T05:51:38.493Z,101069.22
2019-03-22T05:54:08.367Z,101072.78
2019-03-22T05:56:38.238Z,101072.73
2019-03-22T05:59:08.104Z,101075.73
2019-03-22T06:01:37.982Z,101078.13
2019-03-22T06:04:07.853Z,101076.56
2019-03-22T06:06:37.708Z,101079.33
2019-03-22T06:09:08.691Z,101077.05
2019-03-22T06:11:37.969Z,101075.01
2019-03-22T06:14:07.827Z,101079.27
2019-03-22T06:16:37.717Z,101078.78
2019-03-22T06:19:07.593Z,101079.60
2019-03-22T06:21:37.469Z,101077.08
2019-03-22T06:24:07.451Z,101084.24
2019-03-22T06:26:37.403Z,101079.28
2019-03-22T06:29:07.307Z,101080.91
2019-03-22T06:31:37.182Z,101076.14
2019-03-22T06:34:07.064Z,101074.41
2019-03-22T06:36:37.109Z,101069.11
2019-03-22T06:39:08.863Z,101076.38
2019-03-22T06:41:38.892Z,101074.20
2019-03-22T06:44:08.372Z,101071.06
2019-03-22T06:46:38.365Z,101072.92
2019-03-22T06:49:08.245Z,101068.15
2019-03-22T06:51:38.100Z,101073.17
2019-03-22T06:54:07.978Z,101076.18
2019-03-22T06:56:37.856Z,101077.53
2019-03-22T06:59:07.732Z,101076.11
2019-03-22T07:01:37.607Z,101078.96
2019-03-22T07:04:07.464Z,101078.35
2019-03-22T07:06:37.338Z,101074.66
2019-03-22T07:09:08.631Z,101072.34
2019-03-22T07:11:38.128Z,101077.28
2019-03-22T07:14:08.036Z,101079.98
2019-03-22T07:16:37.929Z,101075.29
2019-03-22T07:19:07.828Z,101078.22
2019-03-22T07:21:37.697Z,101074.63
2019-03-22T07:26:47.418Z,101080.60
2019-03-22T07:29:17.291Z,101077.20
2019-03-22T07:31:47.163Z,101073.10
2019-03-22T07:34:17.029Z,101075.33
2019-03-22T07:36:47.229Z,101073.65
2019-03-22T07:39:17.077Z,101075.33
2019-03-22T07:41:46.988Z,101077.03
2019-03-22T07:44:16.891Z,101076.91
2019-03-22T07:46:46.759Z,101076.31
2019-03-22T07:49:16.654Z,101069.76
2019-03-22T07:51:46.551Z,101072.59
2019-03-22T07:54:16.448Z,101062.16
2019-03-22T07:56:46.319Z,101058.34
2019-03-22T07:59:16.274Z,101058.52
2019-03-22T08:01:46.199Z,101053.92
2019-03-22T08:04:15.285Z,101048.23
2019-03-22T08:06:45.149Z,101053.53
2019-03-22T08:09:15.018Z,101052.42
2019-03-22T08:11:44.911Z,101050.48
2019-03-22T08:14:16.371Z,101049.97
2019-03-22T08:17:04.569Z,101049.62
2019-03-22T08:19:33.757Z,101050.31
2019-03-22T08:22:03.623Z,101045.38
2019-03-22T08:24:33.493Z,101042.80
2019-03-22T08:27:03.504Z,101034.77
2019-03-22T08:29:33.586Z,101025.41
2019-03-22T08:32:03.455Z,101026.14
2019-03-22T08:34:33.309Z,101019.72
2019-03-22T08:37:03.242Z,101022.19
2019-03-22T08:39:33.113Z,101022.81
2019-03-22T08:42:03.001Z,101028.70
2019-03-22T08:44:32.899Z,101031.04
2019-03-22T08:47:02.914Z,101027.30
2019-03-22T08:49:33.015Z,101013.92
2019-03-22T08:55:23.821Z,101013.46
2019-03-22T08:57:52.930Z,101003.17
2019-03-22T09:00:22.968Z,100994.53
2019-03-22T09:02:52.846Z,100985.55
2019-03-22T09:05:22.725Z,100982.93
2019-03-22T09:07:52.596Z,100979.77
2019-03-22T09:10:22.515Z,100979.05
2019-03-22T09:12:52.593Z,100983.08
2019-03-22T09:15:24.723Z,100973.95
2019-03-22T09:17:54.661Z,100977.06
2019-03-22T09:20:24.542Z,100968.30
2019-03-22T09:22:54.535Z,100969.56
2019-03-22T09:25:24.421Z,100958.31
2019-03-22T09:27:54.290Z,100963.47
2019-03-22T09:30:24.198Z,100958.83
2019-03-22T09:32:54.088Z,100958.45
2019-03-22T09:35:43.574Z,100956.62
2019-03-22T09:38:13.506Z,100952.10
2019-03-22T09:41:02.565Z,100944.03
2019-03-22T09:43:32.622Z,100943.66
2019-03-22T09:46:02.504Z,100941.71
2019-03-22T09:48:32.526Z,100941.25
2019-03-22T09:51:02.413Z,100940.26
2019-03-22T09:53:32.268Z,100937.44
2019-03-22T09:56:02.159Z,100936.65
2019-03-22T09:58:32.148Z,100933.36
2019-03-22T10:01:02.134Z,100924.65
2019-03-22T10:03:32.104Z,100925.36
2019-03-22T10:06:02.037Z,100925.35
2019-03-22T10:08:31.909Z,100922.92
2019-03-22T10:11:01.823Z,100922.09
2019-03-22T10:13:31.707Z,100917.90
2019-03-22T10:16:01.662Z,100918.61
2019-03-22T10:18:31.677Z,100909.80
2019-03-22T10:21:01.584Z,100903.62
2019-03-22T10:23:31.468Z,100897.46
2019-03-22T10:26:01.362Z,100900.75
2019-03-22T10:28:31.242Z,100892.01
2019-03-22T10:31:01.154Z,100887.53
2019-03-22T10:33:31.026Z,100892.93
2019-03-22T10:36:00.939Z,100887.43
2019-03-22T10:38:32.154Z,100889.82
2019-03-22T10:41:20.604Z,100878.19
2019-03-22T10:43:50.545Z,100875.08
2019-03-22T10:46:20.394Z,100866.91
2019-03-22T10:48:50.310Z,100862.91
2019-03-22T10:51:21.627Z,100863.84
2019-03-22T10:54:10.449Z,100859.41
2019-03-22T10:56:40.391Z,100857.00
2019-03-22T10:59:10.284Z,100856.06
2019-03-22T11:01:48.695Z,100852.38
2019-03-22T11:04:29.970Z,100844.58
2019-03-22T11:07:00.013Z,100839.31
2019-03-22T11:09:29.959Z,100828.42
2019-03-22T11:11:59.842Z,100826.27
2019-03-22T11:14:29.755Z,100816.22
2019-03-22T11:16:59.687Z,100823.22
2019-03-22T11:19:29.693Z,100835.56
2019-03-22T11:21:59.604Z,100824.39
2019-03-22T11:24:29.518Z,100809.87
2019-03-22T11:26:59.404Z,100812.12
2019-03-22T11:29:29.613Z,100807.08
2019-03-22T11:31:59.602Z,100794.27
2019-03-22T11:34:29.498Z,100793.81
2019-03-22T11:36:59.375Z,100787.05
2019-03-22T11:39:29.257Z,100784.34
2019-03-22T11:45:01.935Z,100770.66
2019-03-22T11:47:31.901Z,100765.93
2019-03-22T11:50:01.800Z,100770.13
2019-03-22T11:52:31.817Z,100756.47
2019-03-22T11:55:01.861Z,100747.75
2019-03-22T11:57:31.784Z,100746.55
2019-03-22T12:00:01.664Z,100743.39
2019-03-22T12:02:31.564Z,100740.42
2019-03-22T12:05:01.592Z,100737.12
2019-03-22T12:07:31.531Z,100744.25
2019-03-22T12:10:01.749Z,100740.29
2019-03-22T12:12:31.637Z,100733.30
2019-03-22T12:15:01.519Z,100736.14
2019-03-22T12:17:31.445Z,100728.34
2019-03-22T12:20:01.426Z,100727.22
2019-03-22T12:22:31.280Z,100718.50
2019-03-22T12:25:01.150Z,100712.33
2019-03-22T12:27:36.433Z,100709.57
2019-03-22T12:30:20.937Z,100706.83
2019-03-22T12:32:50.850Z,100712.84
2019-03-22T12:38:23.115Z,100697.81
2019-03-22T12:40:53.057Z,100694.77
2019-03-22T12:43:22.929Z,100686.60
2019-03-22T12:45:52.806Z,100688.69
2019-03-22T12:48:22.694Z,100684.64
2019-03-22T12:50:52.580Z,100683.44
2019-03-22T12:53:22.477Z,100681.52
2019-03-22T12:55:52.347Z,100675.33
2019-03-22T12:58:22.219Z,100678.72
2019-03-22T13:00:52.134Z,100668.68
2019-03-22T13:03:21.378Z,100673.09
2019-03-22T13:05:51.260Z,100659.66
2019-03-22T13:08:21.178Z,100661.14
2019-03-22T13:10:51.051Z,100662.03
2019-03-22T13:13:20.936Z,100659.83
2019-03-22T13:15:50.816Z,100651.13
2019-03-22T13:18:20.825Z,100653.61
2019-03-22T13:20:51.213Z,100642.58
2019-03-22T13:23:40.476Z,100640.31
2019-03-22T13:26:10.438Z,100634.45
2019-03-22T13:28:40.326Z,100630.37
2019-03-22T13:31:11.676Z,100633.19
2019-03-22T13:34:00.014Z,100634.36
2019-03-22T13:39:13.445Z,100620.31
2019-03-22T13:41:43.390Z,100621.44
2019-03-22T13:44:13.264Z,100615.74
2019-03-22T13:49:45.808Z,100609.26
2019-03-22T13:52:15.682Z,100606.55
2019-03-22T13:57:29.340Z,100607.20
2019-03-22T13:59:59.241Z,100600.32
2019-03-22T14:02:29.121Z,100595.12
2019-03-22T14:04:59.015Z,100596.42
2019-03-22T14:07:28.896Z,100600.47
2019-03-22T14:09:58.811Z,100590.99
2019-03-22T14:15:08.826Z,100587.92
2019-03-22T14:17:38.734Z,100591.77
2019-03-22T14:20:20.374Z,100587.95
2019-03-22T14:22:49.559Z,100574.22
2019-03-22T14:25:19.439Z,100575.55
2019-03-22T14:27:48.512Z,100572.56
2019-03-22T14:30:17.894Z,100570.59
2019-03-22T14:32:47.790Z,100566.37
2019-03-22T14:35:17.676Z,100569.82
2019-03-22T14:37:47.539Z,100573.11
2019-03-22T14:40:17.436Z,100569.25
2019-03-22T14:42:47.451Z,100571.92
2019-03-22T14:45:17.431Z,100568.12
2019-03-22T14:47:47.303Z,100570.53
2019-03-22T14:50:17.183Z,100569.46
2019-03-22T14:52:47.044Z,100569.56
2019-03-22T14:55:16.974Z,100572.18
2019-03-22T14:57:50.060Z,100570.68
2019-03-22T15:00:36.647Z,100570.52
2019-03-22T15:03:23.459Z,100572.41
2019-03-22T15:06:06.531Z,100565.92
2019-03-22T15:11:19.447Z,100562.49
2019-03-22T15:14:08.803Z,100570.75
2019-03-22T15:16:57.456Z,100566.19
2019-03-22T15:19:46.576Z,100561.16
2019-03-22T15:22:35.648Z,100561.23
2019-03-22T15:25:25.671Z,100561.81
2019-03-22T15:28:15.057Z,100558.13
2019-03-22T15:34:06.691Z,100555.69
2019-03-22T15:36:56.153Z,100551.38
2019-03-22T15:39:45.513Z,100550.68
2019-03-22T15:42:15.411Z,100545.09
2019-03-22T15:44:45.294Z,100547.42
2019-03-22T15:47:15.199Z,100548.98
2019-03-22T15:49:44.492Z,100557.36
2019-03-22T15:52:14.372Z,100549.10
2019-03-22T15:54:44.241Z,100549.32
2019-03-22T15:57:14.150Z,100548.62
2019-03-22T15:59:44.037Z,100553.80
2019-03-22T16:02:14.131Z,100557.66
2019-03-22T16:04:44.007Z,100557.29
2019-03-22T16:07:13.948Z,100545.91
2019-03-22T16:09:43.268Z,100549.93
2019-03-22T16:12:13.246Z,100556.97
2019-03-22T16:14:43.151Z,100562.85
2019-03-22T16:17:13.033Z,100560.12
2019-03-22T16:19:42.952Z,100556.02
2019-03-22T16:22:12.901Z,100557.41
2019-03-22T16:24:43.024Z,100554.39
2019-03-22T16:27:12.961Z,100547.44
2019-03-22T16:29:42.839Z,100551.27
2019-03-22T16:32:12.812Z,100544.52
2019-03-22T16:34:42.835Z,100546.48
2019-03-22T16:37:12.744Z,100545.43
2019-03-22T16:39:42.804Z,100544.63
2019-03-22T16:42:12.692Z,100547.52
2019-03-22T16:44:42.588Z,100549.25
2019-03-22T16:47:12.531Z,100542.91
2019-03-22T16:49:42.462Z,100542.13
2019-03-22T16:52:12.370Z,100541.59
2019-03-22T16:54:42.469Z,100543.06
2019-03-22T16:57:13.366Z,100541.17
2019-03-22T16:59:43.080Z,100542.57
2019-03-22T17:02:13.063Z,100539.18
2019-03-22T17:04:42.969Z,100550.17
2019-03-22T17:09:58.411Z,100549.03
2019-03-22T17:12:28.322Z,100544.09
2019-03-22T17:14:58.676Z,100541.48
2019-03-22T17:17:28.594Z,100543.83
2019-03-22T17:19:59.441Z,100538.45
2019-03-22T17:22:29.346Z,100543.58
2019-03-22T17:24:59.352Z,100555.42
2019-03-22T17:27:29.250Z,100549.13
2019-03-22T17:29:59.153Z,100544.12
2019-03-22T17:32:29.031Z,100548.96
2019-03-22T17:34:58.915Z,100547.03
2019-03-22T17:37:28.860Z,100545.67
2019-03-22T17:39:58.820Z,100551.64
2019-03-22T17:42:28.700Z,100546.27
2019-03-22T17:44:58.568Z,100551.47
2019-03-22T17:47:28.581Z,100549.75
2019-03-22T17:49:58.488Z,100543.45
2019-03-22T17:52:28.384Z,100542.88
2019-03-22T17:54:58.304Z,100547.34
2019-03-22T17:57:28.195Z,100547.34
2019-03-22T17:59:58.111Z,100537.27
2019-03-22T18:02:28.077Z,100543.52
2019-03-22T18:04:57.976Z,100539.72
2019-03-22T18:07:27.978Z,100544.37
2019-03-22T18:09:57.908Z,100553.67
2019-03-22T18:12:27.849Z,100554.75
2019-03-22T18:14:57.739Z,100547.48
2019-03-22T18:17:27.705Z,100554.14
2019-03-22T18:19:57.584Z,100551.38
2019-03-22T18:28:14.484Z,100551.28
2019-03-22T18:30:55.739Z,100547.23
2019-03-22T18:33:25.124Z,100554.39
2019-03-22T18:35:55.075Z,100546.38
2019-03-22T18:41:08.691Z,100547.91
2019-03-22T18:43:38.560Z,100546.57
2019-03-22T18:46:08.464Z,100545.94
2019-03-22T18:48:38.427Z,100540.56
2019-03-22T18:51:19.829Z,100547.51
2019-03-22T18:53:49.323Z,100541.94
2019-03-22T18:56:19.223Z,100549.99
2019-03-22T18:58:49.108Z,100544.30
2019-03-22T19:01:19.078Z,100545.59
2019-03-22T19:03:48.946Z,100551.18
2019-03-22T19:06:19.004Z,100547.42
2019-03-22T19:11:32.676Z,100547.47
2019-03-22T19:17:05.637Z,100543.22
2019-03-22T19:19:35.628Z,100540.31
2019-03-22T19:22:17.541Z,100551.38
2019-03-22T19:24:58.788Z,100546.89
2019-03-22T19:27:28.018Z,100551.33
2019-03-22T19:29:58.347Z,100554.80
2019-03-22T19:32:28.260Z,100554.02
2019-03-22T19:34:58.307Z,100554.47
2019-03-22T19:37:28.218Z,100551.84
2019-03-22T19:39:58.090Z,100555.12
2019-03-22T19:42:28.550Z,100551.28
2019-03-22T19:44:58.509Z,100559.37
2019-03-22T19:47:28.485Z,100554.81
2019-03-22T19:49:58.512Z,100554.57
2019-03-22T19:52:28.440Z,100558.37
2019-03-22T19:54:58.328Z,100557.45
2019-03-22T19:57:28.693Z,100556.89
2019-03-22T19:59:58.653Z,100558.39
2019-03-22T20:02:28.256Z,100555.92
2019-03-22T20:07:42.219Z,100555.64
2019-03-22T20:10:12.516Z,100556.96
2019-03-22T20:12:42.650Z,100558.36
2019-03-22T20:18:15.145Z,100560.65
2019-03-22T20:23:53.524Z,100560.20
2019-03-22T20:29:43.957Z,100550.50
2019-03-22T20:34:56.989Z,100550.97
2019-03-22T20:37:26.928Z,100547.82
2019-03-22T20:39:56.839Z,100550.83
2019-03-22T20:42:26.879Z,100545.81
2019-03-22T20:44:56.766Z,100544.59
2019-03-22T20:47:26.850Z,100534.88
2019-03-22T20:49:57.076Z,100535.73
2019-03-22T20:52:27.435Z,100538.20
2019-03-22T20:54:57.468Z,100539.41
2019-03-22T20:57:27.326Z,100537.34
2019-03-22T20:59:57.617Z,100538.09
2019-03-22T21:02:27.638Z,100535.95
2019-03-22T21:04:57.872Z,100537.38
2019-03-22T21:07:28.388Z,100541.80
2019-03-22T21:09:58.289Z,100537.41
2019-03-22T21:12:28.426Z,100530.02
2019-03-22T21:14:58.586Z,100540.47
2019-03-22T21:17:28.480Z,100542.58
2019-03-22T21:19:58.382Z,100546.33
2019-03-22T21:22:28.661Z,100551.41
2019-03-22T21:24:58.557Z,100552.39
2019-03-22T21:27:29.062Z,100558.63
2019-03-22T21:29:59.278Z,100562.29
2019-03-22T21:35:37.172Z,100558.95
2019-03-22T21:38:22.039Z,100560.05
2019-03-22T21:40:51.963Z,100560.55
2019-03-22T21:46:23.719Z,100559.77
2019-03-22T21:48:53.979Z,100554.12
2019-03-22T21:51:23.900Z,100560.70
2019-03-22T21:53:54.125Z,100565.81
2019-03-22T21:56:24.024Z,100563.00
2019-03-22T21:58:54.232Z,100569.52
2019-03-22T22:01:24.401Z,100557.12
2019-03-22T22:03:54.727Z,100559.66
2019-03-22T22:06:24.674Z,100556.58
2019-03-22T22:08:54.565Z,100558.94
2019-03-22T22:11:24.443Z,100549.64
2019-03-22T22:13:54.335Z,100552.04
2019-03-22T22:16:24.229Z,100554.44
2019-03-22T22:18:54.115Z,100540.19
2019-03-22T22:21:23.307Z,100559.23
2019-03-22T22:23:53.211Z,100560.84
2019-03-22T22:26:23.079Z,100557.66
2019-03-22T22:28:52.386Z,100558.64
2019-03-22T22:31:24.554Z,100550.59
2019-03-22T22:33:54.442Z,100554.30
2019-03-22T22:36:24.334Z,100555.70
2019-03-22T22:38:54.210Z,100553.47
2019-03-22T22:41:23.305Z,100561.01
2019-03-22T22:43:53.180Z,100564.33
2019-03-22T22:46:23.060Z,100559.27
2019-03-22T22:48:52.976Z,100564.16
2019-03-22T22:51:22.848Z,100560.44
2019-03-22T22:53:52.717Z,100562.56
2019-03-22T22:56:21.895Z,100560.09
2019-03-22T22:58:51.809Z,100558.83
2019-03-22T23:01:21.656Z,100560.28
2019-03-22T23:03:51.629Z,100556.86
2019-03-22T23:06:21.507Z,100553.72
2019-03-22T23:08:51.405Z,100554.05
2019-03-22T23:11:21.269Z,100546.86
2019-03-22T23:13:51.155Z,100548.19
2019-03-22T23:16:21.073Z,100550.23
2019-03-22T23:18:50.961Z,100549.89
2019-03-22T23:24:02.215Z,100557.38
2019-03-22T23:26:31.410Z,100552.01
2019-03-22T23:29:01.282Z,100555.30
2019-03-22T23:31:31.175Z,100557.88
2019-03-22T23:34:01.094Z,100558.72
2019-03-22T23:36:30.950Z,100559.59
2019-03-22T23:39:00.828Z,100558.31
2019-03-22T23:41:30.728Z,100565.70
2019-03-22T23:44:00.595Z,100567.61
2019-03-22T23:46:30.511Z,100561.94
2019-03-22T23:49:00.373Z,100558.47
2019-03-22T23:51:30.269Z,100548.63
2019-03-22T23:54:00.237Z,100549.84
2019-03-22T23:56:30.138Z,100542.45
2019-03-22T23:59:00.018Z,100546.21
